sensor_id;sensor_type;location;lat;lon;timestamp;pressure;altitude;pressure_sealevel;temperature;humidity
18790;BME280;9523;42.650;23.386;2022-07-10T00:02:05;94543.25;;;16.08;100.00
18790;BME280;9523;42.650;23.386;2022-07-10T00:04:32;94548.13;;;16.06;100.00
18790;BME280;9523;42.650;23.386;2022-07-10T00:06:59;94546.56;;;16.05;100.00
18790;BME280;9523;42.650;23.386;2022-07-10T00:09:27;94544.28;;;15.95;100.00
18790;BME280;9523;42.650;23.386;2022-07-10T00:11:54;94546.88;;;16.04;100.00
18790;BME280;9523;42.650;23.386;2022-07-10T00:14:23;94536.88;;;16.01;100.00
18790;BME280;9523;42.650;23.386;2022-07-10T00:16:50;94537.03;;;16.04;100.00
18790;BME280;9523;42.650;23.386;2022-07-10T00:19:16;94541.75;;;15.98;100.00
18790;BME280;9523;42.650;23.386;2022-07-10T00:21:43;94540.91;;;16.07;100.00
18790;BME280;9523;42.650;23.386;2022-07-10T00:24:10;94525.84;;;15.90;100.00
18790;BME280;9523;42.650;23.386;2022-07-10T00:26:37;94533.13;;;16.02;100.00
18790;BME280;9523;42.650;23.386;2022-07-10T00:29:04;94530.94;;;16.04;100.00
18790;BME280;9523;42.650;23.386;2022-07-10T00:31:32;94454.41;;;15.50;100.00
18790;BME280;9523;42.650;23.386;2022-07-10T00:33:59;94524.28;;;15.89;100.00
18790;BME280;9523;42.650;23.386;2022-07-10T00:36:26;94525.84;;;15.90;100.00
18790;BME280;9523;42.650;23.386;2022-07-10T00:38:53;94521.28;;;15.90;100.00
18790;BME280;9523;42.650;23.386;2022-07-10T00:41:20;94525.88;;;15.81;100.00
18790;BME280;9523;42.650;23.386;2022-07-10T00:43:54;94514.47;;;15.81;100.00
18790;BME280;9523;42.650;23.386;2022-07-10T00:46:22;94514.94;;;15.83;100.00
18790;BME280;9523;42.650;23.386;2022-07-10T00:48:51;94518.38;;;15.83;100.00
18790;BME280;9523;42.650;23.386;2022-07-10T00:51:19;94512.31;;;15.74;100.00
18790;BME280;9523;42.650;23.386;2022-07-10T00:53:47;94505.94;;;15.67;100.00
18790;BME280;9523;42.650;23.386;2022-07-10T00:56:16;94509.53;;;15.71;100.00
18790;BME280;9523;42.650;23.386;2022-07-10T00:58:44;94516.91;;;15.65;100.00
18790;BME280;9523;42.650;23.386;2022-07-10T01:01:12;94510.09;;;15.56;100.00
18790;BME280;9523;42.650;23.386;2022-07-10T01:03:39;94501.91;;;15.61;100.00
18790;BME280;9523;42.650;23.386;2022-07-10T01:06:08;94509.69;;;15.66;100.00
18790;BME280;9523;42.650;23.386;2022-07-10T01:08:35;94507.03;;;15.66;100.00
18790;BME280;9523;42.650;23.386;2022-07-10T01:11:02;94514.44;;;15.60;100.00
18790;BME280;9523;42.650;23.386;2022-07-10T01:13:29;94511.31;;;15.58;100.00
18790;BME280;9523;42.650;23.386;2022-07-10T01:15:57;94504.91;;;15.59;100.00
18790;BME280;9523;42.650;23.386;2022-07-10T01:18:25;94506.13;;;15.62;100.00
18790;BME280;9523;42.650;23.386;2022-07-10T01:20:54;94500.34;;;15.60;100.00
18790;BME280;9523;42.650;23.386;2022-07-10T01:23:21;94506.13;;;15.62;100.00
18790;BME280;9523;42.650;23.386;2022-07-10T01:25:49;94503.72;;;15.69;100.00
18790;BME280;9523;42.650;23.386;2022-07-10T01:28:16;94502.47;;;15.75;100.00
18790;BME280;9523;42.650;23.386;2022-07-10T01:30:43;94490.72;;;15.76;100.00
18790;BME280;9523;42.650;23.386;2022-07-10T01:33:11;94493.09;;;15.69;100.00
18790;BME280;9523;42.650;23.386;2022-07-10T01:35:38;94487.78;;;15.69;100.00
18790;BME280;9523;42.650;23.386;2022-07-10T01:38:06;94486.16;;;15.56;100.00
18790;BME280;9523;42.650;23.386;2022-07-10T01:40:33;94464.28;;;15.41;100.00
18790;BME280;9523;42.650;23.386;2022-07-10T01:43:00;94479.09;;;15.60;100.00
18790;BME280;9523;42.650;23.386;2022-07-10T01:45:27;94481.91;;;15.55;100.00
18790;BME280;9523;42.650;23.386;2022-07-10T01:47:54;94479.44;;;15.49;100.00
18790;BME280;9523;42.650;23.386;2022-07-10T01:50:20;94479.75;;;15.48;100.00
18790;BME280;9523;42.650;23.386;2022-07-10T01:52:47;94479.13;;;15.42;100.00
18790;BME280;9523;42.650;23.386;2022-07-10T01:55:19;94462.75;;;15.40;100.00
18790;BME280;9523;42.650;23.386;2022-07-10T01:57:45;94468.50;;;15.42;100.00
18790;BME280;9523;42.650;23.386;2022-07-10T02:00:13;94472.72;;;15.43;100.00
18790;BME280;9523;42.650;23.386;2022-07-10T02:02:40;94478.34;;;15.42;100.00
18790;BME280;9523;42.650;23.386;2022-07-10T02:05:26;94470.41;;;15.33;100.00
18790;BME280;9523;42.650;23.386;2022-07-10T02:07:54;94479.13;;;15.42;100.00
18790;BME280;9523;42.650;23.386;2022-07-10T02:10:22;94476.66;;;15.37;100.00
18790;BME280;9523;42.650;23.386;2022-07-10T02:12:49;94471.47;;;15.41;100.00
18790;BME280;9523;42.650;23.386;2022-07-10T02:15:16;94473.81;;;15.42;100.00
18790;BME280;9523;42.650;23.386;2022-07-10T02:17:43;94471.81;;;15.39;100.00
18790;BME280;9523;42.650;23.386;2022-07-10T02:20:10;94468.50;;;15.42;100.00
18790;BME280;9523;42.650;23.386;2022-07-10T02:22:37;94470.91;;;15.35;100.00
18790;BME280;9523;42.650;23.386;2022-07-10T02:25:05;94467.72;;;15.42;100.00
18790;BME280;9523;42.650;23.386;2022-07-10T02:27:33;94461.97;;;15.40;100.00
18790;BME280;9523;42.650;23.386;2022-07-10T02:30:00;94469.59;;;15.41;100.00
18790;BME280;9523;42.650;23.386;2022-07-10T02:32:30;94468.50;;;15.42;100.00
18790;BME280;9523;42.650;23.386;2022-07-10T02:34:57;94469.16;;;15.39;100.00
18790;BME280;9523;42.650;23.386;2022-07-10T02:37:24;94468.09;;;15.32;100.00
18790;BME280;9523;42.650;23.386;2022-07-10T02:39:51;94468.88;;;15.32;100.00
18790;BME280;9523;42.650;23.386;2022-07-10T02:42:18;94448.47;;;15.16;100.00
18790;BME280;9523;42.650;23.386;2022-07-10T02:44:46;94469.22;;;15.22;100.00
18790;BME280;9523;42.650;23.386;2022-07-10T02:47:13;94466.97;;;15.33;100.00
18790;BME280;9523;42.650;23.386;2022-07-10T02:49:40;94486.09;;;15.26;100.00
18790;BME280;9523;42.650;23.386;2022-07-10T02:52:08;94480.44;;;15.36;100.00
18790;BME280;9523;42.650;23.386;2022-07-10T02:54:34;94473.91;;;15.25;100.00
18790;BME280;9523;42.650;23.386;2022-07-10T02:57:02;94477.81;;;15.28;100.00
18790;BME280;9523;42.650;23.386;2022-07-10T02:59:29;94484.84;;;15.32;100.00
18790;BME280;9523;42.650;23.386;2022-07-10T03:01:57;94490.75;;;15.29;100.00
18790;BME280;9523;42.650;23.386;2022-07-10T03:04:24;94486.22;;;15.30;100.00
18790;BME280;9523;42.650;23.386;2022-07-10T03:06:51;94480.91;;;15.30;100.00
18790;BME280;9523;42.650;23.386;2022-07-10T03:09:18;94487.50;;;15.32;100.00
18790;BME280;9523;42.650;23.386;2022-07-10T03:11:45;94488.84;;;15.38;100.00
18790;BME280;9523;42.650;23.386;2022-07-10T03:14:14;94486.38;;;15.33;100.00
18790;BME280;9523;42.650;23.386;2022-07-10T03:16:42;94485.59;;;15.33;100.00
18790;BME280;9523;42.650;23.386;2022-07-10T03:19:10;94500.22;;;15.47;100.00
18790;BME280;9523;42.650;23.386;2022-07-10T03:21:38;94498.84;;;15.41;100.00
18790;BME280;9523;42.650;23.386;2022-07-10T03:24:06;94495.22;;;15.46;100.00
18790;BME280;9523;42.650;23.386;2022-07-10T03:26:33;94506.03;;;15.49;100.00
18790;BME280;9523;42.650;23.386;2022-07-10T03:29:04;94499.09;;;15.57;100.00
18790;BME280;9523;42.650;23.386;2022-07-10T03:31:31;94502.81;;;15.65;100.00
18790;BME280;9523;42.650;23.386;2022-07-10T03:33:58;94487.19;;;15.63;100.00
18790;BME280;9523;42.650;23.386;2022-07-10T03:36:26;94470.84;;;15.53;100.00
18790;BME280;9523;42.650;23.386;2022-07-10T03:38:53;94492.13;;;15.73;100.00
18790;BME280;9523;42.650;23.386;2022-07-10T03:41:20;94494.00;;;15.73;100.00
18790;BME280;9523;42.650;23.386;2022-07-10T03:43:50;94474.84;;;15.59;100.00
18790;BME280;9523;42.650;23.386;2022-07-10T03:46:17;94496.34;;;15.74;100.00
18790;BME280;9523;42.650;23.386;2022-07-10T03:48:44;94484.94;;;15.74;100.00
18790;BME280;9523;42.650;23.386;2022-07-10T03:51:11;94488.59;;;15.61;100.00
18790;BME280;9523;42.650;23.386;2022-07-10T03:53:42;94488.94;;;15.59;100.00
18790;BME280;9523;42.650;23.386;2022-07-10T03:56:09;94477.13;;;15.69;100.00
18790;BME280;9523;42.650;23.386;2022-07-10T03:58:59;94486.09;;;15.64;100.00
18790;BME280;9523;42.650;23.386;2022-07-10T04:01:25;94478.31;;;15.59;100.00
18790;BME280;9523;42.650;23.386;2022-07-10T04:03:51;94481.06;;;15.71;100.00
18790;BME280;9523;42.650;23.386;2022-07-10T04:06:18;94472.09;;;15.76;100.00
18790;BME280;9523;42.650;23.386;2022-07-10T04:08:47;94478.22;;;15.76;100.00
18790;BME280;9523;42.650;23.386;2022-07-10T04:11:14;94483.00;;;15.83;100.00
18790;BME280;9523;42.650;23.386;2022-07-10T04:13:44;94479.25;;;15.84;100.00
18790;BME280;9523;42.650;23.386;2022-07-10T04:16:11;94473.28;;;15.87;100.00
18790;BME280;9523;42.650;23.386;2022-07-10T04:18:38;94478.72;;;15.90;100.00
18790;BME280;9523;42.650;23.386;2022-07-10T04:21:05;94483.75;;;15.92;100.00
18790;BME280;9523;42.650;23.386;2022-07-10T04:23:32;94478.41;;;15.92;100.00
18790;BME280;9523;42.650;23.386;2022-07-10T04:26:01;94437.50;;;15.55;100.00
18790;BME280;9523;42.650;23.386;2022-07-10T04:28:28;94469.72;;;15.83;100.00
18790;BME280;9523;42.650;23.386;2022-07-10T04:30:54;94469.72;;;15.83;100.00
18790;BME280;9523;42.650;23.386;2022-07-10T04:33:22;94463.91;;;15.81;100.00
18790;BME280;9523;42.650;23.386;2022-07-10T04:35:49;94478.66;;;15.99;100.00
18790;BME280;9523;42.650;23.386;2022-07-10T04:38:16;94478.59;;;15.87;100.00
18790;BME280;9523;42.650;23.386;2022-07-10T04:40:43;94480.47;;;15.86;100.00
18790;BME280;9523;42.650;23.386;2022-07-10T04:43:11;94467.91;;;15.95;100.00
18790;BME280;9523;42.650;23.386;2022-07-10T04:45:38;94465.50;;;16.03;100.00
18790;BME280;9523;42.650;23.386;2022-07-10T04:48:05;94467.44;;;15.93;100.00
18790;BME280;9523;42.650;23.386;2022-07-10T04:50:32;94468.47;;;16.01;100.00
18790;BME280;9523;42.650;23.386;2022-07-10T04:53:02;94442.44;;;15.86;100.00
18790;BME280;9523;42.650;23.386;2022-07-10T04:55:32;94466.94;;;16.00;100.00
18790;BME280;9523;42.650;23.386;2022-07-10T04:57:59;94472.31;;;16.12;100.00
18790;BME280;9523;42.650;23.386;2022-07-10T05:00:27;94471.06;;;16.10;100.00
18790;BME280;9523;42.650;23.386;2022-07-10T05:02:54;94463.25;;;16.25;100.00
18790;BME280;9523;42.650;23.386;2022-07-10T05:05:23;94472.34;;;16.24;100.00
18790;BME280;9523;42.650;23.386;2022-07-10T05:07:50;94462.53;;;16.37;100.00
18790;BME280;9523;42.650;23.386;2022-07-10T05:10:17;94464.56;;;16.40;100.00
18790;BME280;9523;42.650;23.386;2022-07-10T05:12:44;94471.53;;;16.44;100.00
18790;BME280;9523;42.650;23.386;2022-07-10T05:15:11;94474.81;;;16.50;100.00
18790;BME280;9523;42.650;23.386;2022-07-10T05:17:39;94469.84;;;16.61;100.00
18790;BME280;9523;42.650;23.386;2022-07-10T05:20:07;94468.97;;;16.57;100.00
18790;BME280;9523;42.650;23.386;2022-07-10T05:22:34;94467.78;;;16.45;100.00
18790;BME280;9523;42.650;23.386;2022-07-10T05:25:01;94460.25;;;16.48;100.00
18790;BME280;9523;42.650;23.386;2022-07-10T05:27:28;94463.91;;;16.43;100.00
18790;BME280;9523;42.650;23.386;2022-07-10T05:29:55;94466.75;;;16.59;100.00
18790;BME280;9523;42.650;23.386;2022-07-10T05:32:22;94465.66;;;16.60;100.00
18790;BME280;9523;42.650;23.386;2022-07-10T05:34:52;94463.13;;;16.63;100.00
18790;BME280;9523;42.650;23.386;2022-07-10T05:37:18;94470.13;;;16.68;100.00
18790;BME280;9523;42.650;23.386;2022-07-10T05:39:45;94452.59;;;16.67;100.00
18790;BME280;9523;42.650;23.386;2022-07-10T05:42:12;94469.97;;;16.64;100.00
18790;BME280;9523;42.650;23.386;2022-07-10T05:44:42;94478.00;;;16.76;100.00
18790;BME280;9523;42.650;23.386;2022-07-10T05:47:09;94473.69;;;16.72;100.00
18790;BME280;9523;42.650;23.386;2022-07-10T05:49:36;94469.03;;;16.81;100.00
18790;BME280;9523;42.650;23.386;2022-07-10T05:52:05;94468.91;;;16.77;100.00
18790;BME280;9523;42.650;23.386;2022-07-10T05:54:34;94469.25;;;16.88;100.00
18790;BME280;9523;42.650;23.386;2022-07-10T05:57:02;94441.72;;;16.84;100.00
18790;BME280;9523;42.650;23.386;2022-07-10T05:59:29;94466.31;;;17.14;100.00
18790;BME280;9523;42.650;23.386;2022-07-10T06:01:55;94468.44;;;17.32;100.00
18790;BME280;9523;42.650;23.386;2022-07-10T06:04:27;94452.53;;;17.36;100.00
18790;BME280;9523;42.650;23.386;2022-07-10T06:06:55;94455.78;;;17.42;100.00
18790;BME280;9523;42.650;23.386;2022-07-10T06:09:23;94456.56;;;17.54;100.00
18790;BME280;9523;42.650;23.386;2022-07-10T06:11:50;94459.44;;;17.73;100.00
18790;BME280;9523;42.650;23.386;2022-07-10T06:14:17;94469.78;;;17.75;100.00
18790;BME280;9523;42.650;23.386;2022-07-10T06:16:44;94471.09;;;17.81;100.00
18790;BME280;9523;42.650;23.386;2022-07-10T06:19:11;94461.97;;;17.94;100.00
18790;BME280;9523;42.650;23.386;2022-07-10T06:21:42;94470.16;;;18.13;100.00
18790;BME280;9523;42.650;23.386;2022-07-10T06:24:09;94476.50;;;18.09;100.00
18790;BME280;9523;42.650;23.386;2022-07-10T06:26:38;94465.41;;;18.07;100.00
18790;BME280;9523;42.650;23.386;2022-07-10T06:29:05;94461.91;;;18.18;100.00
18790;BME280;9523;42.650;23.386;2022-07-10T06:31:32;94456.13;;;18.16;100.00
18790;BME280;9523;42.650;23.386;2022-07-10T06:33:59;94453.78;;;18.27;100.00
18790;BME280;9523;42.650;23.386;2022-07-10T06:36:26;94461.28;;;18.37;100.00
18790;BME280;9523;42.650;23.386;2022-07-10T06:38:52;94449.41;;;18.35;100.00
18790;BME280;9523;42.650;23.386;2022-07-10T06:41:21;94464.75;;;18.38;100.00
18790;BME280;9523;42.650;23.386;2022-07-10T06:43:49;94459.44;;;18.25;100.00
18790;BME280;9523;42.650;23.386;2022-07-10T06:46:16;94414.56;;;18.03;100.00
18790;BME280;9523;42.650;23.386;2022-07-10T06:48:43;94446.47;;;18.40;100.00
18790;BME280;9523;42.650;23.386;2022-07-10T06:51:09;94445.81;;;18.43;100.00
18790;BME280;9523;42.650;23.386;2022-07-10T06:53:36;94445.41;;;18.56;100.00
18790;BME280;9523;42.650;23.386;2022-07-10T06:56:03;94449.97;;;18.56;100.00
18790;BME280;9523;42.650;23.386;2022-07-10T06:58:30;94451.81;;;18.67;100.00
18790;BME280;9523;42.650;23.386;2022-07-10T07:00:59;94425.84;;;18.52;98.88
18790;BME280;9523;42.650;23.386;2022-07-10T07:03:25;94458.16;;;18.75;98.31
18790;BME280;9523;42.650;23.386;2022-07-10T07:05:52;94443.38;;;18.65;96.32
18790;BME280;9523;42.650;23.386;2022-07-10T07:08:19;94457.69;;;18.73;96.00
18790;BME280;9523;42.650;23.386;2022-07-10T07:10:46;94440.81;;;18.85;96.56
18790;BME280;9523;42.650;23.386;2022-07-10T07:13:17;94444.91;;;18.94;96.96
18790;BME280;9523;42.650;23.386;2022-07-10T07:15:43;94448.59;;;19.05;94.36
18790;BME280;9523;42.650;23.386;2022-07-10T07:18:17;94451.44;;;19.12;93.86
18790;BME280;9523;42.650;23.386;2022-07-10T07:20:47;94438.41;;;18.95;94.24
18790;BME280;9523;42.650;23.386;2022-07-10T07:23:31;94446.88;;;18.97;95.56
18790;BME280;9523;42.650;23.386;2022-07-10T07:25:58;94453.09;;;19.17;95.82
18790;BME280;9523;42.650;23.386;2022-07-10T07:28:25;94462.69;;;19.18;93.17
18790;BME280;9523;42.650;23.386;2022-07-10T07:30:52;94451.19;;;19.17;90.81
18790;BME280;9523;42.650;23.386;2022-07-10T07:33:20;94455.59;;;19.26;90.64
18790;BME280;9523;42.650;23.386;2022-07-10T07:35:47;94458.28;;;19.26;88.66
18790;BME280;9523;42.650;23.386;2022-07-10T07:38:14;94453.88;;;19.17;90.61
18790;BME280;9523;42.650;23.386;2022-07-10T07:40:41;94453.97;;;19.21;91.44
18790;BME280;9523;42.650;23.386;2022-07-10T07:43:11;94445.31;;;19.28;92.87
18790;BME280;9523;42.650;23.386;2022-07-10T07:45:38;94452.38;;;19.36;95.55
18790;BME280;9523;42.650;23.386;2022-07-10T07:48:05;94450.41;;;19.33;92.18
18790;BME280;9523;42.650;23.386;2022-07-10T07:50:35;94448.94;;;19.51;92.23
18790;BME280;9523;42.650;23.386;2022-07-10T07:53:04;94444.78;;;19.69;93.74
18790;BME280;9523;42.650;23.386;2022-07-10T07:55:31;94434.88;;;19.69;94.09
18790;BME280;9523;42.650;23.386;2022-07-10T07:57:59;94445.69;;;19.92;88.91
18790;BME280;9523;42.650;23.386;2022-07-10T08:00:27;94442.47;;;20.02;89.50
18790;BME280;9523;42.650;23.386;2022-07-10T08:02:56;94448.44;;;20.15;90.00
18790;BME280;9523;42.650;23.386;2022-07-10T08:05:24;94439.31;;;20.35;88.42
18790;BME280;9523;42.650;23.386;2022-07-10T08:07:53;94453.47;;;20.16;84.42
18790;BME280;9523;42.650;23.386;2022-07-10T08:10:22;94440.91;;;20.21;84.81
18790;BME280;9523;42.650;23.386;2022-07-10T08:12:49;94441.22;;;20.35;84.26
18790;BME280;9523;42.650;23.386;2022-07-10T08:15:19;94434.88;;;20.43;83.61
18790;BME280;9523;42.650;23.386;2022-07-10T08:17:48;94431.50;;;20.46;81.42
18790;BME280;9523;42.650;23.386;2022-07-10T08:20:16;94437.41;;;20.36;78.79
18790;BME280;9523;42.650;23.386;2022-07-10T08:22:43;94445.44;;;20.36;78.35
18790;BME280;9523;42.650;23.386;2022-07-10T08:25:13;94440.00;;;20.51;80.46
18790;BME280;9523;42.650;23.386;2022-07-10T08:27:40;94417.72;;;20.47;74.86
18790;BME280;9523;42.650;23.386;2022-07-10T08:30:08;94442.13;;;20.61;74.69
18790;BME280;9523;42.650;23.386;2022-07-10T08:32:36;94423.44;;;20.65;74.84
18790;BME280;9523;42.650;23.386;2022-07-10T08:35:03;94441.91;;;21.12;74.46
18790;BME280;9523;42.650;23.386;2022-07-10T08:37:36;94440.84;;;21.17;70.22
18790;BME280;9523;42.650;23.386;2022-07-10T08:40:05;94431.53;;;21.33;68.64
18790;BME280;9523;42.650;23.386;2022-07-10T08:42:33;94439.53;;;21.56;66.65
18790;BME280;9523;42.650;23.386;2022-07-10T08:45:00;94447.06;;;21.47;66.93
18790;BME280;9523;42.650;23.386;2022-07-10T08:47:27;94443.25;;;21.48;65.07
18790;BME280;9523;42.650;23.386;2022-07-10T08:49:56;94444.91;;;21.82;61.53
18790;BME280;9523;42.650;23.386;2022-07-10T08:52:26;94437.28;;;22.11;58.37
18790;BME280;9523;42.650;23.386;2022-07-10T08:54:53;94449.47;;;22.05;57.82
18790;BME280;9523;42.650;23.386;2022-07-10T08:57:22;94437.09;;;21.96;56.78
18790;BME280;9523;42.650;23.386;2022-07-10T08:59:51;94437.69;;;21.86;58.32
18790;BME280;9523;42.650;23.386;2022-07-10T09:02:19;94421.72;;;22.27;56.51
18790;BME280;9523;42.650;23.386;2022-07-10T09:04:46;94425.03;;;22.46;57.25
18790;BME280;9523;42.650;23.386;2022-07-10T09:07:13;94427.53;;;22.66;56.72
18790;BME280;9523;42.650;23.386;2022-07-10T09:09:52;94427.50;;;22.96;55.53
18790;BME280;9523;42.650;23.386;2022-07-10T09:12:20;94430.19;;;23.36;55.16
18790;BME280;9523;42.650;23.386;2022-07-10T09:14:48;94423.47;;;23.63;54.44
18790;BME280;9523;42.650;23.386;2022-07-10T09:17:16;94413.19;;;23.79;50.57
18790;BME280;9523;42.650;23.386;2022-07-10T09:19:43;94417.47;;;23.84;52.92
18790;BME280;9523;42.650;23.386;2022-07-10T09:22:11;94412.19;;;24.09;53.94
18790;BME280;9523;42.650;23.386;2022-07-10T09:24:40;94417.00;;;24.40;49.15
18790;BME280;9523;42.650;23.386;2022-07-10T09:27:09;94380.03;;;24.48;47.77
18790;BME280;9523;42.650;23.386;2022-07-10T09:29:45;94413.19;;;24.48;46.38
18790;BME280;9523;42.650;23.386;2022-07-10T09:32:16;94418.44;;;24.20;47.27
18790;BME280;9523;42.650;23.386;2022-07-10T09:34:47;94421.22;;;24.41;47.42
18790;BME280;9523;42.650;23.386;2022-07-10T09:37:18;94393.28;;;24.95;45.95
18790;BME280;9523;42.650;23.386;2022-07-10T09:39:52;94408.25;;;26.09;43.86
18790;BME280;9523;42.650;23.386;2022-07-10T09:42:30;94401.47;;;26.63;42.26
18790;BME280;9523;42.650;23.386;2022-07-10T09:45:14;94391.94;;;27.66;42.28
18790;BME280;9523;42.650;23.386;2022-07-10T09:47:45;94407.53;;;27.51;40.71
18790;BME280;9523;42.650;23.386;2022-07-10T09:50:30;94386.94;;;27.61;38.75
18790;BME280;9523;42.650;23.386;2022-07-10T09:53:00;94396.22;;;28.38;37.69
18790;BME280;9523;42.650;23.386;2022-07-10T09:55:30;94387.47;;;28.23;37.43
18790;BME280;9523;42.650;23.386;2022-07-10T09:57:59;94394.72;;;26.09;40.84
18790;BME280;9523;42.650;23.386;2022-07-10T10:00:28;94377.75;;;26.02;41.97
18790;BME280;9523;42.650;23.386;2022-07-10T10:02:58;94390.38;;;27.13;40.70
18790;BME280;9523;42.650;23.386;2022-07-10T10:05:36;94387.19;;;28.14;40.00
18790;BME280;9523;42.650;23.386;2022-07-10T10:08:10;94381.38;;;29.33;36.76
18790;BME280;9523;42.650;23.386;2022-07-10T10:10:44;94389.25;;;29.94;35.77
18790;BME280;9523;42.650;23.386;2022-07-10T10:13:15;94378.94;;;30.84;34.64
18790;BME280;9523;42.650;23.386;2022-07-10T10:15:42;94374.22;;;30.68;35.06
18790;BME280;9523;42.650;23.386;2022-07-10T10:18:12;94373.91;;;31.67;33.70
18790;BME280;9523;42.650;23.386;2022-07-10T10:20:40;94376.41;;;32.64;33.11
18790;BME280;9523;42.650;23.386;2022-07-10T10:23:13;94372.84;;;30.41;32.49
18790;BME280;9523;42.650;23.386;2022-07-10T10:25:40;94375.44;;;30.48;32.90
18790;BME280;9523;42.650;23.386;2022-07-10T10:28:09;94382.16;;;28.77;34.31
18790;BME280;9523;42.650;23.386;2022-07-10T10:30:38;94351.97;;;26.70;37.71
18790;BME280;9523;42.650;23.386;2022-07-10T10:33:41;94364.56;;;26.18;39.24
18790;BME280;9523;42.650;23.386;2022-07-10T10:36:11;94333.03;;;25.83;41.50
18790;BME280;9523;42.650;23.386;2022-07-10T10:39:01;94355.00;;;26.83;39.73
18790;BME280;9523;42.650;23.386;2022-07-10T10:41:30;94348.91;;;25.63;40.72
18790;BME280;9523;42.650;23.386;2022-07-10T10:44:20;94361.63;;;24.89;42.74
18790;BME280;9523;42.650;23.386;2022-07-10T10:46:57;94365.88;;;24.86;42.89
18790;BME280;9523;42.650;23.386;2022-07-10T10:49:56;94350.09;;;25.16;42.04
18790;BME280;9523;42.650;23.386;2022-07-10T10:52:25;94358.50;;;24.62;43.59
18790;BME280;9523;42.650;23.386;2022-07-10T10:55:06;94353.94;;;25.05;43.57
18790;BME280;9523;42.650;23.386;2022-07-10T10:57:42;94365.50;;;24.88;44.71
18790;BME280;9523;42.650;23.386;2022-07-10T11:00:37;94350.06;;;24.85;44.91
18790;BME280;9523;42.650;23.386;2022-07-10T11:03:13;94345.44;;;24.89;44.82
18790;BME280;9523;42.650;23.386;2022-07-10T11:05:43;94355.44;;;24.70;43.46
18790;BME280;9523;42.650;23.386;2022-07-10T11:08:11;94347.72;;;24.69;43.53
18790;BME280;9523;42.650;23.386;2022-07-10T11:10:40;94363.44;;;24.35;44.99
18790;BME280;9523;42.650;23.386;2022-07-10T11:13:08;94345.75;;;24.52;44.24
18790;BME280;9523;42.650;23.386;2022-07-10T11:15:37;94348.03;;;24.36;44.50
18790;BME280;9523;42.650;23.386;2022-07-10T11:18:07;94349.97;;;24.39;44.75
18790;BME280;9523;42.650;23.386;2022-07-10T11:20:35;94346.13;;;24.54;43.70
18790;BME280;9523;42.650;23.386;2022-07-10T11:26:06;94343.91;;;24.84;44.03
18790;BME280;9523;42.650;23.386;2022-07-10T11:28:50;94352.38;;;24.86;43.27
18790;BME280;9523;42.650;23.386;2022-07-10T11:31:17;94343.84;;;24.66;42.65
18790;BME280;9523;42.650;23.386;2022-07-10T11:33:46;94337.28;;;24.50;43.55
18790;BME280;9523;42.650;23.386;2022-07-10T11:36:15;94334.63;;;24.67;43.17
18790;BME280;9523;42.650;23.386;2022-07-10T11:38:43;94322.69;;;25.25;43.04
18790;BME280;9523;42.650;23.386;2022-07-10T11:41:16;94336.59;;;25.55;44.22
18790;BME280;9523;42.650;23.386;2022-07-10T11:43:53;94343.50;;;25.60;46.00
18790;BME280;9523;42.650;23.386;2022-07-10T11:46:22;94332.69;;;25.46;45.90
18790;BME280;9523;42.650;23.386;2022-07-10T11:48:56;94338.09;;;25.49;45.38
18790;BME280;9523;42.650;23.386;2022-07-10T11:51:25;94334.66;;;25.35;45.23
18790;BME280;9523;42.650;23.386;2022-07-10T11:53:57;94337.34;;;25.42;46.29
18790;BME280;9523;42.650;23.386;2022-07-10T11:56:29;94330.00;;;25.60;44.67
18790;BME280;9523;42.650;23.386;2022-07-10T11:58:58;94335.75;;;25.73;44.51
18790;BME280;9523;42.650;23.386;2022-07-10T12:01:27;94341.09;;;25.94;43.42
18790;BME280;9523;42.650;23.386;2022-07-10T12:03:59;94337.19;;;26.09;43.67
18790;BME280;9523;42.650;23.386;2022-07-10T12:06:27;94337.53;;;26.18;43.97
18790;BME280;9523;42.650;23.386;2022-07-10T12:09:02;94346.00;;;26.34;41.97
18790;BME280;9523;42.650;23.386;2022-07-10T12:11:31;94339.84;;;26.30;41.80
18790;BME280;9523;42.650;23.386;2022-07-10T12:14:12;94332.50;;;26.27;41.88
18790;BME280;9523;42.650;23.386;2022-07-10T12:16:41;94334.31;;;26.51;41.98
18790;BME280;9523;42.650;23.386;2022-07-10T12:19:11;94334.31;;;26.51;42.92
18790;BME280;9523;42.650;23.386;2022-07-10T12:21:38;94331.19;;;26.53;43.56
18790;BME280;9523;42.650;23.386;2022-07-10T12:24:07;94342.56;;;26.23;40.78
18790;BME280;9523;42.650;23.386;2022-07-10T12:26:38;94332.31;;;25.51;41.62
18790;BME280;9523;42.650;23.386;2022-07-10T12:29:05;94333.09;;;25.62;42.56
18790;BME280;9523;42.650;23.386;2022-07-10T12:31:33;94331.56;;;25.54;43.93
18790;BME280;9523;42.650;23.386;2022-07-10T12:34:02;94325.38;;;25.29;44.49
18790;BME280;9523;42.650;23.386;2022-07-10T12:36:46;94329.22;;;24.78;42.57
18790;BME280;9523;42.650;23.386;2022-07-10T12:39:14;94335.00;;;24.73;41.67
18790;BME280;9523;42.650;23.386;2022-07-10T12:41:57;94337.81;;;23.94;42.17
18790;BME280;9523;42.650;23.386;2022-07-10T12:44:38;94344.13;;;24.26;43.72
18790;BME280;9523;42.650;23.386;2022-07-10T12:47:06;94347.13;;;24.03;41.77
18790;BME280;9523;42.650;23.386;2022-07-10T12:49:52;94340.16;;;23.95;42.16
18790;BME280;9523;42.650;23.386;2022-07-10T12:52:23;94340.31;;;24.34;41.43
18790;BME280;9523;42.650;23.386;2022-07-10T12:55:05;94327.59;;;24.31;42.27
18790;BME280;9523;42.650;23.386;2022-07-10T12:57:44;94334.47;;;24.14;41.41
18790;BME280;9523;42.650;23.386;2022-07-10T13:00:15;94328.81;;;24.51;42.06
18790;BME280;9523;42.650;23.386;2022-07-10T13:02:44;94337.69;;;24.66;40.79
18790;BME280;9523;42.650;23.386;2022-07-10T13:05:28;94341.16;;;24.52;42.15
18790;BME280;9523;42.650;23.386;2022-07-10T13:08:06;94341.94;;;24.70;41.20
18790;BME280;9523;42.650;23.386;2022-07-10T13:10:35;94326.88;;;24.52;41.44